sensor_id;sensor_type;location;lat;lon;timestamp;P1;durP1;ratioP1;P2;durP2;ratioP2
34828;SDS011;21042;47.620;12.188;2023-03-01T00:01:03;44.22;;;19.23;;
34828;SDS011;21042;47.620;12.188;2023-03-01T00:03:31;43.78;;;19.45;;
34828;SDS011;21042;47.620;12.188;2023-03-01T00:05:59;42.22;;;20.65;;
34828;SDS011;21042;47.620;12.188;2023-03-01T00:08:26;48.78;;;21.52;;
34828;SDS011;21042;47.620;12.188;2023-03-01T00:11:00;44.80;;;19.48;;
34828;SDS011;21042;47.620;12.188;2023-03-01T00:13:30;45.90;;;19.75;;
34828;SDS011;21042;47.620;12.188;2023-03-01T00:15:57;45.78;;;19.30;;
34828;SDS011;21042;47.620;12.188;2023-03-01T00:18:24;44.75;;;20.55;;
34828;SDS011;21042;47.620;12.188;2023-03-01T00:20:51;45.15;;;19.92;;
34828;SDS011;21042;47.620;12.188;2023-03-01T00:23:19;42.90;;;18.98;;
34828;SDS011;21042;47.620;12.188;2023-03-01T00:28:13;38.40;;;18.30;;
34828;SDS011;21042;47.620;12.188;2023-03-01T00:30:40;42.33;;;19.55;;
34828;SDS011;21042;47.620;12.188;2023-03-01T00:33:07;41.42;;;19.15;;
34828;SDS011;21042;47.620;12.188;2023-03-01T00:35:33;46.03;;;20.38;;
34828;SDS011;21042;47.620;12.188;2023-03-01T00:38:00;45.95;;;19.58;;
34828;SDS011;21042;47.620;12.188;2023-03-01T00:40:28;47.10;;;19.48;;
34828;SDS011;21042;47.620;12.188;2023-03-01T00:42:55;42.15;;;19.70;;
34828;SDS011;21042;47.620;12.188;2023-03-01T00:45:22;42.70;;;20.27;;
34828;SDS011;21042;47.620;12.188;2023-03-01T00:47:49;48.50;;;20.52;;
34828;SDS011;21042;47.620;12.188;2023-03-01T00:50:17;43.85;;;19.83;;
34828;SDS011;21042;47.620;12.188;2023-03-01T00:52:44;43.08;;;19.65;;
34828;SDS011;21042;47.620;12.188;2023-03-01T00:55:11;42.22;;;19.58;;
34828;SDS011;21042;47.620;12.188;2023-03-01T00:57:39;44.60;;;19.40;;
34828;SDS011;21042;47.620;12.188;2023-03-01T01:00:06;46.72;;;19.58;;
34828;SDS011;21042;47.620;12.188;2023-03-01T01:02:34;43.17;;;19.80;;
34828;SDS011;21042;47.620;12.188;2023-03-01T01:05:01;43.75;;;19.88;;
34828;SDS011;21042;47.620;12.188;2023-03-01T01:07:28;48.53;;;19.60;;
34828;SDS011;21042;47.620;12.188;2023-03-01T01:09:54;41.35;;;19.40;;
34828;SDS011;21042;47.620;12.188;2023-03-01T01:12:21;51.92;;;20.75;;
34828;SDS011;21042;47.620;12.188;2023-03-01T01:14:48;46.72;;;21.15;;
34828;SDS011;21042;47.620;12.188;2023-03-01T01:17:15;48.63;;;21.20;;
34828;SDS011;21042;47.620;12.188;2023-03-01T01:19:41;33.03;;;15.02;;
34828;SDS011;21042;47.620;12.188;2023-03-01T01:22:08;50.80;;;22.17;;
34828;SDS011;21042;47.620;12.188;2023-03-01T01:24:35;54.45;;;22.23;;
34828;SDS011;21042;47.620;12.188;2023-03-01T01:27:02;47.10;;;21.40;;
34828;SDS011;21042;47.620;12.188;2023-03-01T01:29:29;49.15;;;22.23;;
34828;SDS011;21042;47.620;12.188;2023-03-01T01:31:56;32.25;;;15.30;;
34828;SDS011;21042;47.620;12.188;2023-03-01T01:34:22;47.08;;;20.70;;
34828;SDS011;21042;47.620;12.188;2023-03-01T01:36:50;38.13;;;16.45;;
34828;SDS011;21042;47.620;12.188;2023-03-01T01:39:22;48.70;;;21.77;;
34828;SDS011;21042;47.620;12.188;2023-03-01T01:41:49;45.03;;;20.02;;
34828;SDS011;21042;47.620;12.188;2023-03-01T01:44:22;32.90;;;15.75;;
34828;SDS011;21042;47.620;12.188;2023-03-01T01:47:04;56.42;;;23.65;;
34828;SDS011;21042;47.620;12.188;2023-03-01T01:49:38;50.28;;;21.73;;
34828;SDS011;21042;47.620;12.188;2023-03-01T01:52:29;47.63;;;21.98;;
34828;SDS011;21042;47.620;12.188;2023-03-01T01:55:07;54.72;;;21.55;;
34828;SDS011;21042;47.620;12.188;2023-03-01T01:57:38;53.30;;;21.10;;
34828;SDS011;21042;47.620;12.188;2023-03-01T02:02:44;51.65;;;23.17;;
34828;SDS011;21042;47.620;12.188;2023-03-01T02:05:36;54.28;;;22.35;;
34828;SDS011;21042;47.620;12.188;2023-03-01T02:08:21;51.95;;;23.67;;
34828;SDS011;21042;47.620;12.188;2023-03-01T02:10:54;49.13;;;21.67;;
34828;SDS011;21042;47.620;12.188;2023-03-01T02:13:22;48.00;;;21.85;;
34828;SDS011;21042;47.620;12.188;2023-03-01T02:15:49;49.50;;;21.92;;
34828;SDS011;21042;47.620;12.188;2023-03-01T02:18:17;56.17;;;24.17;;
34828;SDS011;21042;47.620;12.188;2023-03-01T02:23:25;51.92;;;22.02;;
34828;SDS011;21042;47.620;12.188;2023-03-01T02:25:55;52.03;;;22.25;;
34828;SDS011;21042;47.620;12.188;2023-03-01T02:28:31;51.45;;;22.30;;
34828;SDS011;21042;47.620;12.188;2023-03-01T02:30:59;55.17;;;24.58;;
34828;SDS011;21042;47.620;12.188;2023-03-01T02:33:45;56.58;;;24.13;;
34828;SDS011;21042;47.620;12.188;2023-03-01T02:36:15;53.10;;;23.25;;
34828;SDS011;21042;47.620;12.188;2023-03-01T02:38:46;51.72;;;23.15;;
34828;SDS011;21042;47.620;12.188;2023-03-01T02:41:14;51.90;;;23.00;;
34828;SDS011;21042;47.620;12.188;2023-03-01T02:43:44;51.10;;;23.60;;
34828;SDS011;21042;47.620;12.188;2023-03-01T02:46:15;59.33;;;23.40;;
34828;SDS011;21042;47.620;12.188;2023-03-01T02:48:54;59.10;;;23.67;;
34828;SDS011;21042;47.620;12.188;2023-03-01T02:51:27;61.10;;;24.92;;
34828;SDS011;21042;47.620;12.188;2023-03-01T02:56:58;55.85;;;23.45;;
34828;SDS011;21042;47.620;12.188;2023-03-01T02:59:29;54.35;;;24.10;;
34828;SDS011;21042;47.620;12.188;2023-03-01T03:02:00;58.50;;;24.85;;
34828;SDS011;21042;47.620;12.188;2023-03-01T03:04:27;60.95;;;26.10;;
34828;SDS011;21042;47.620;12.188;2023-03-01T03:06:54;57.50;;;24.15;;
34828;SDS011;21042;47.620;12.188;2023-03-01T03:09:20;42.50;;;16.95;;
34828;SDS011;21042;47.620;12.188;2023-03-01T03:11:47;58.58;;;25.92;;
34828;SDS011;21042;47.620;12.188;2023-03-01T03:14:15;61.95;;;25.90;;
34828;SDS011;21042;47.620;12.188;2023-03-01T03:16:46;59.80;;;24.85;;
34828;SDS011;21042;47.620;12.188;2023-03-01T03:19:15;59.60;;;25.67;;
34828;SDS011;21042;47.620;12.188;2023-03-01T03:21:43;55.85;;;24.02;;
34828;SDS011;21042;47.620;12.188;2023-03-01T03:24:10;59.42;;;24.95;;
34828;SDS011;21042;47.620;12.188;2023-03-01T03:26:37;54.97;;;24.85;;
34828;SDS011;21042;47.620;12.188;2023-03-01T03:29:03;58.97;;;25.60;;
34828;SDS011;21042;47.620;12.188;2023-03-01T03:31:31;58.88;;;25.55;;
34828;SDS011;21042;47.620;12.188;2023-03-01T03:33:57;44.00;;;18.80;;
34828;SDS011;21042;47.620;12.188;2023-03-01T03:38:51;59.67;;;24.73;;
34828;SDS011;21042;47.620;12.188;2023-03-01T03:41:18;65.93;;;24.92;;
34828;SDS011;21042;47.620;12.188;2023-03-01T03:43:45;65.70;;;26.50;;
34828;SDS011;21042;47.620;12.188;2023-03-01T03:46:12;62.00;;;27.48;;
34828;SDS011;21042;47.620;12.188;2023-03-01T03:48:40;68.43;;;27.38;;
34828;SDS011;21042;47.620;12.188;2023-03-01T03:51:13;65.95;;;27.20;;
34828;SDS011;21042;47.620;12.188;2023-03-01T03:53:41;57.40;;;25.42;;
34828;SDS011;21042;47.620;12.188;2023-03-01T03:56:09;69.55;;;27.63;;
34828;SDS011;21042;47.620;12.188;2023-03-01T03:58:36;63.85;;;28.73;;
34828;SDS011;21042;47.620;12.188;2023-03-01T04:01:03;68.80;;;28.80;;
34828;SDS011;21042;47.620;12.188;2023-03-01T04:03:31;70.82;;;29.98;;
34828;SDS011;21042;47.620;12.188;2023-03-01T04:05:58;64.97;;;28.13;;
34828;SDS011;21042;47.620;12.188;2023-03-01T04:08:26;63.10;;;27.75;;
34828;SDS011;21042;47.620;12.188;2023-03-01T04:10:58;60.78;;;27.40;;
34828;SDS011;21042;47.620;12.188;2023-03-01T04:13:47;61.25;;;27.20;;
34828;SDS011;21042;47.620;12.188;2023-03-01T04:16:13;70.93;;;28.08;;
34828;SDS011;21042;47.620;12.188;2023-03-01T04:18:40;66.93;;;28.17;;
34828;SDS011;21042;47.620;12.188;2023-03-01T04:21:07;67.35;;;28.42;;
34828;SDS011;21042;47.620;12.188;2023-03-01T04:23:34;45.30;;;20.10;;
34828;SDS011;21042;47.620;12.188;2023-03-01T04:28:35;68.53;;;27.50;;
34828;SDS011;21042;47.620;12.188;2023-03-01T04:31:07;61.00;;;27.23;;
34828;SDS011;21042;47.620;12.188;2023-03-01T04:33:40;65.22;;;27.80;;
34828;SDS011;21042;47.620;12.188;2023-03-01T04:36:12;66.28;;;28.40;;
34828;SDS011;21042;47.620;12.188;2023-03-01T04:38:40;65.68;;;27.63;;
34828;SDS011;21042;47.620;12.188;2023-03-01T04:43:36;69.68;;;29.27;;
34828;SDS011;21042;47.620;12.188;2023-03-01T04:46:07;71.47;;;28.95;;
34828;SDS011;21042;47.620;12.188;2023-03-01T04:48:40;67.25;;;29.65;;
34828;SDS011;21042;47.620;12.188;2023-03-01T04:51:07;72.47;;;29.85;;
34828;SDS011;21042;47.620;12.188;2023-03-01T04:53:35;69.78;;;29.73;;
34828;SDS011;21042;47.620;12.188;2023-03-01T04:56:05;74.65;;;32.08;;
34828;SDS011;21042;47.620;12.188;2023-03-01T04:58:32;65.30;;;29.23;;
34828;SDS011;21042;47.620;12.188;2023-03-01T05:00:59;69.25;;;30.02;;
34828;SDS011;21042;47.620;12.188;2023-03-01T05:03:25;71.35;;;28.98;;
34828;SDS011;21042;47.620;12.188;2023-03-01T05:05:52;73.05;;;30.67;;
34828;SDS011;21042;47.620;12.188;2023-03-01T05:08:19;77.43;;;31.65;;
34828;SDS011;21042;47.620;12.188;2023-03-01T05:13:19;64.15;;;27.83;;
34828;SDS011;21042;47.620;12.188;2023-03-01T05:15:48;69.57;;;28.20;;
34828;SDS011;21042;47.620;12.188;2023-03-01T05:18:19;72.13;;;29.48;;
34828;SDS011;21042;47.620;12.188;2023-03-01T05:20:46;68.38;;;29.10;;
34828;SDS011;21042;47.620;12.188;2023-03-01T05:23:13;75.20;;;29.50;;
34828;SDS011;21042;47.620;12.188;2023-03-01T05:25:40;65.03;;;28.65;;
34828;SDS011;21042;47.620;12.188;2023-03-01T05:28:09;54.78;;;22.48;;
34828;SDS011;21042;47.620;12.188;2023-03-01T05:30:37;67.30;;;29.08;;
34828;SDS011;21042;47.620;12.188;2023-03-01T05:33:05;70.90;;;29.35;;
34828;SDS011;21042;47.620;12.188;2023-03-01T05:35:39;76.22;;;29.80;;
34828;SDS011;21042;47.620;12.188;2023-03-01T05:38:08;66.43;;;28.10;;
34828;SDS011;21042;47.620;12.188;2023-03-01T05:40:39;67.68;;;29.13;;
34828;SDS011;21042;47.620;12.188;2023-03-01T05:43:07;72.22;;;29.52;;
34828;SDS011;21042;47.620;12.188;2023-03-01T05:45:35;50.42;;;22.38;;
34828;SDS011;21042;47.620;12.188;2023-03-01T05:48:03;62.63;;;27.30;;
34828;SDS011;21042;47.620;12.188;2023-03-01T05:50:35;65.00;;;28.45;;
34828;SDS011;21042;47.620;12.188;2023-03-01T05:53:05;69.70;;;28.42;;
34828;SDS011;21042;47.620;12.188;2023-03-01T05:55:35;62.85;;;28.08;;
34828;SDS011;21042;47.620;12.188;2023-03-01T05:58:04;61.58;;;27.45;;
34828;SDS011;21042;47.620;12.188;2023-03-01T06:00:32;70.25;;;31.25;;
34828;SDS011;21042;47.620;12.188;2023-03-01T06:02:59;63.50;;;27.90;;
34828;SDS011;21042;47.620;12.188;2023-03-01T06:05:27;67.30;;;29.30;;
34828;SDS011;21042;47.620;12.188;2023-03-01T06:07:54;64.25;;;29.02;;
34828;SDS011;21042;47.620;12.188;2023-03-01T06:10:24;69.75;;;28.95;;
34828;SDS011;21042;47.620;12.188;2023-03-01T06:12:51;65.05;;;28.42;;
34828;SDS011;21042;47.620;12.188;2023-03-01T06:15:18;62.35;;;28.20;;
34828;SDS011;21042;47.620;12.188;2023-03-01T06:17:45;67.05;;;27.48;;
34828;SDS011;21042;47.620;12.188;2023-03-01T06:20:32;64.70;;;26.75;;
34828;SDS011;21042;47.620;12.188;2023-03-01T06:22:59;66.20;;;27.83;;
34828;SDS011;21042;47.620;12.188;2023-03-01T06:25:26;70.75;;;29.55;;
34828;SDS011;21042;47.620;12.188;2023-03-01T06:30:20;61.03;;;26.77;;
34828;SDS011;21042;47.620;12.188;2023-03-01T06:32:48;61.92;;;26.70;;
34828;SDS011;21042;47.620;12.188;2023-03-01T06:37:44;59.42;;;26.88;;
34828;SDS011;21042;47.620;12.188;2023-03-01T06:40:12;62.90;;;27.98;;
34828;SDS011;21042;47.620;12.188;2023-03-01T06:42:41;64.40;;;28.25;;
34828;SDS011;21042;47.620;12.188;2023-03-01T06:45:09;67.95;;;27.83;;
34828;SDS011;21042;47.620;12.188;2023-03-01T06:47:36;60.97;;;26.98;;
34828;SDS011;21042;47.620;12.188;2023-03-01T06:50:03;62.85;;;27.80;;
34828;SDS011;21042;47.620;12.188;2023-03-01T06:52:31;62.63;;;28.35;;
34828;SDS011;21042;47.620;12.188;2023-03-01T06:54:57;64.50;;;28.23;;
34828;SDS011;21042;47.620;12.188;2023-03-01T06:57:24;67.30;;;27.67;;
34828;SDS011;21042;47.620;12.188;2023-03-01T06:59:51;66.97;;;29.02;;
34828;SDS011;21042;47.620;12.188;2023-03-01T07:02:18;64.32;;;29.10;;
34828;SDS011;21042;47.620;12.188;2023-03-01T07:04:44;58.95;;;27.10;;
34828;SDS011;21042;47.620;12.188;2023-03-01T07:07:11;66.35;;;28.27;;
34828;SDS011;21042;47.620;12.188;2023-03-01T07:09:38;49.10;;;20.42;;
34828;SDS011;21042;47.620;12.188;2023-03-01T07:12:05;63.35;;;28.00;;
34828;SDS011;21042;47.620;12.188;2023-03-01T07:14:32;61.70;;;27.45;;
34828;SDS011;21042;47.620;12.188;2023-03-01T07:16:59;57.92;;;26.30;;
34828;SDS011;21042;47.620;12.188;2023-03-01T07:19:26;46.42;;;19.02;;
34828;SDS011;21042;47.620;12.188;2023-03-01T07:21:53;61.65;;;27.30;;
34828;SDS011;21042;47.620;12.188;2023-03-01T07:24:21;60.00;;;26.60;;
34828;SDS011;21042;47.620;12.188;2023-03-01T07:26:49;56.63;;;27.02;;
34828;SDS011;21042;47.620;12.188;2023-03-01T07:29:16;60.22;;;25.13;;
34828;SDS011;21042;47.620;12.188;2023-03-01T07:31:43;62.55;;;27.27;;
34828;SDS011;21042;47.620;12.188;2023-03-01T07:36:37;58.97;;;25.40;;
34828;SDS011;21042;47.620;12.188;2023-03-01T07:39:05;56.38;;;24.98;;
34828;SDS011;21042;47.620;12.188;2023-03-01T07:41:32;64.25;;;26.80;;
34828;SDS011;21042;47.620;12.188;2023-03-01T07:43:59;46.30;;;21.30;;
34828;SDS011;21042;47.620;12.188;2023-03-01T07:46:26;52.45;;;25.83;;
34828;SDS011;21042;47.620;12.188;2023-03-01T07:48:53;53.80;;;23.67;;
34828;SDS011;21042;47.620;12.188;2023-03-01T07:51:19;34.40;;;15.95;;
34828;SDS011;21042;47.620;12.188;2023-03-01T07:53:47;55.08;;;23.90;;
34828;SDS011;21042;47.620;12.188;2023-03-01T07:56:14;48.90;;;22.75;;
34828;SDS011;21042;47.620;12.188;2023-03-01T07:58:44;52.55;;;23.33;;
34828;SDS011;21042;47.620;12.188;2023-03-01T08:01:12;61.20;;;23.95;;
34828;SDS011;21042;47.620;12.188;2023-03-01T08:03:40;51.88;;;24.35;;
34828;SDS011;21042;47.620;12.188;2023-03-01T08:06:10;50.80;;;23.02;;
34828;SDS011;21042;47.620;12.188;2023-03-01T08:08:38;50.90;;;23.30;;
34828;SDS011;21042;47.620;12.188;2023-03-01T08:11:05;46.92;;;23.23;;
34828;SDS011;21042;47.620;12.188;2023-03-01T08:13:33;50.28;;;22.92;;
34828;SDS011;21042;47.620;12.188;2023-03-01T08:16:04;49.67;;;22.20;;
34828;SDS011;21042;47.620;12.188;2023-03-01T08:18:33;50.33;;;22.20;;
34828;SDS011;21042;47.620;12.188;2023-03-01T08:21:03;51.95;;;22.40;;
34828;SDS011;21042;47.620;12.188;2023-03-01T08:23:38;50.83;;;22.42;;
34828;SDS011;21042;47.620;12.188;2023-03-01T08:28:39;46.72;;;22.15;;
34828;SDS011;21042;47.620;12.188;2023-03-01T08:31:13;46.22;;;22.55;;
34828;SDS011;21042;47.620;12.188;2023-03-01T08:33:46;50.88;;;22.52;;
34828;SDS011;21042;47.620;12.188;2023-03-01T08:36:17;51.53;;;22.90;;
34828;SDS011;21042;47.620;12.188;2023-03-01T08:38:44;46.25;;;20.95;;
34828;SDS011;21042;47.620;12.188;2023-03-01T08:43:38;47.83;;;22.45;;
34828;SDS011;21042;47.620;12.188;2023-03-01T08:46:05;32.05;;;15.52;;
34828;SDS011;21042;47.620;12.188;2023-03-01T08:48:32;52.58;;;21.88;;
34828;SDS011;21042;47.620;12.188;2023-03-01T08:51:12;50.55;;;20.92;;
34828;SDS011;21042;47.620;12.188;2023-03-01T08:53:41;50.22;;;21.60;;
34828;SDS011;21042;47.620;12.188;2023-03-01T08:56:08;45.35;;;20.92;;
34828;SDS011;21042;47.620;12.188;2023-03-01T08:58:35;42.08;;;21.42;;
34828;SDS011;21042;47.620;12.188;2023-03-01T09:01:06;52.92;;;21.48;;
34828;SDS011;21042;47.620;12.188;2023-03-01T09:03:34;48.95;;;21.63;;
34828;SDS011;21042;47.620;12.188;2023-03-01T09:06:01;38.75;;;17.20;;
34828;SDS011;21042;47.620;12.188;2023-03-01T09:08:28;51.00;;;21.50;;
34828;SDS011;21042;47.620;12.188;2023-03-01T09:10:55;47.75;;;21.63;;
34828;SDS011;21042;47.620;12.188;2023-03-01T09:13:22;51.08;;;21.92;;
34828;SDS011;21042;47.620;12.188;2023-03-01T09:15:53;46.63;;;22.00;;
34828;SDS011;21042;47.620;12.188;2023-03-01T09:18:20;55.05;;;22.33;;
34828;SDS011;21042;47.620;12.188;2023-03-01T09:20:46;43.55;;;20.98;;
34828;SDS011;21042;47.620;12.188;2023-03-01T09:23:13;47.08;;;21.52;;
34828;SDS011;21042;47.620;12.188;2023-03-01T09:25:40;47.28;;;22.10;;
34828;SDS011;21042;47.620;12.188;2023-03-01T09:28:06;30.95;;;14.90;;
34828;SDS011;21042;47.620;12.188;2023-03-01T09:30:40;46.28;;;21.67;;
34828;SDS011;21042;47.620;12.188;2023-03-01T09:33:07;47.05;;;22.40;;
34828;SDS011;21042;47.620;12.188;2023-03-01T09:35:40;50.60;;;23.23;;
34828;SDS011;21042;47.620;12.188;2023-03-01T09:38:12;45.53;;;21.45;;
34828;SDS011;21042;47.620;12.188;2023-03-01T09:40:43;44.30;;;22.08;;
34828;SDS011;21042;47.620;12.188;2023-03-01T09:43:18;47.40;;;21.90;;
34828;SDS011;21042;47.620;12.188;2023-03-01T09:45:52;51.72;;;21.15;;
34828;SDS011;21042;47.620;12.188;2023-03-01T09:48:23;49.67;;;21.35;;
34828;SDS011;21042;47.620;12.188;2023-03-01T09:50:52;45.55;;;21.52;;
34828;SDS011;21042;47.620;12.188;2023-03-01T09:53:23;48.65;;;22.58;;
34828;SDS011;21042;47.620;12.188;2023-03-01T09:56:02;54.78;;;22.35;;
34828;SDS011;21042;47.620;12.188;2023-03-01T09:58:45;51.35;;;22.23;;
34828;SDS011;21042;47.620;12.188;2023-03-01T10:01:40;49.35;;;22.25;;
34828;SDS011;21042;47.620;12.188;2023-03-01T10:09:37;47.90;;;21.15;;
34828;SDS011;21042;47.620;12.188;2023-03-01T10:12:10;46.00;;;20.35;;
34828;SDS011;21042;47.620;12.188;2023-03-01T10:17:30;48.72;;;22.10;;
34828;SDS011;21042;47.620;12.188;2023-03-01T10:22:47;43.50;;;20.60;;
34828;SDS011;21042;47.620;12.188;2023-03-01T10:25:22;39.85;;;19.98;;
34828;SDS011;21042;47.620;12.188;2023-03-01T10:28:04;48.13;;;20.08;;
34828;SDS011;21042;47.620;12.188;2023-03-01T10:30:38;56.05;;;20.95;;
34828;SDS011;21042;47.620;12.188;2023-03-01T10:33:16;45.55;;;19.92;;
34828;SDS011;21042;47.620;12.188;2023-03-01T10:35:47;41.80;;;19.58;;
34828;SDS011;21042;47.620;12.188;2023-03-01T10:38:15;38.97;;;19.73;;
34828;SDS011;21042;47.620;12.188;2023-03-01T10:40:55;41.10;;;19.08;;
34828;SDS011;21042;47.620;12.188;2023-03-01T10:43:42;40.17;;;19.25;;
34828;SDS011;21042;47.620;12.188;2023-03-01T10:51:46;39.47;;;19.23;;
34828;SDS011;21042;47.620;12.188;2023-03-01T10:54:16;42.42;;;19.35;;
34828;SDS011;21042;47.620;12.188;2023-03-01T10:56:49;36.50;;;19.05;;
34828;SDS011;21042;47.620;12.188;2023-03-01T10:59:22;44.30;;;21.63;;
34828;SDS011;21042;47.620;12.188;2023-03-01T11:05:02;37.72;;;19.80;;
34828;SDS011;21042;47.620;12.188;2023-03-01T11:07:52;51.10;;;21.38;;
34828;SDS011;21042;47.620;12.188;2023-03-01T11:10:31;41.47;;;19.50;;
34828;SDS011;21042;47.620;12.188;2023-03-01T11:15:33;38.08;;;18.27;;
